Time;durP1;ratioP1;P1;durP2;ratioP2;P2;SDS_P1;SDS_P2;PMS_P1;PMS_P2;Temp;Humidity;BMP_temperature;BMP_pressure;BME280_temperature;BME280_humidity;BME280_pressure;Samples;Min_cycle;Max_cycle;Signal;HPM_P1;HPM_P2
2021/04/25 00:00:07;;;;;;;8.10;2.60;;;11.30;43.60;;;;;;5075964;28;20039;-64
2021/04/25 00:02:32;;;;;;;10.00;2.30;;;11.30;43.60;;;;;;5065444;28;20101;-65
2021/04/25 00:05:00;;;;;;;17.17;2.38;;;11.30;43.50;;;;;;5071016;28;20040;-64
2021/04/25 00:07:28;;;;;;;8.50;2.15;;;11.30;43.70;;;;;;5070788;28;20042;-65
2021/04/25 00:09:54;;;;;;;9.23;2.05;;;11.30;43.80;;;;;;5070229;28;20035;-64
2021/04/25 00:12:24;;;;;;;6.75;2.22;;;11.30;43.80;;;;;;5070364;28;20040;-65
2021/04/25 00:14:52;;;;;;;6.60;2.00;;;11.30;43.90;;;;;;5057370;28;20039;-64
2021/04/25 00:17:17;;;;;;;9.23;2.00;;;11.30;43.80;;;;;;5081131;28;20077;-64
2021/04/25 00:19:45;;;;;;;11.82;2.60;;;11.30;43.90;;;;;;5079175;28;20673;-64
2021/04/25 00:22:13;;;;;;;8.45;2.40;;;11.20;43.80;;;;;;5063853;28;20060;-64
2021/04/25 00:24:38;;;;;;;14.32;2.25;;;11.20;44.00;;;;;;5076913;28;20070;-65
2021/04/25 00:27:09;;;;;;;5.65;1.90;;;11.20;44.00;;;;;;5076587;28;20412;-64
2021/04/25 00:29:40;;;;;;;5.95;1.90;;;11.20;43.90;;;;;;5079599;28;20128;-64
2021/04/25 00:32:06;;;;;;;17.10;2.10;;;11.30;44.00;;;;;;5073358;28;20058;-64
2021/04/25 00:34:33;;;;;;;9.50;1.95;;;11.20;44.00;;;;;;5064530;28;20517;-65
2021/04/25 00:37:01;;;;;;;8.65;2.45;;;11.20;43.90;;;;;;5082992;27;20039;-65
2021/04/25 00:39:29;;;;;;;9.68;1.90;;;11.20;44.00;;;;;;5073760;28;20113;-64
2021/04/25 00:41:59;;;;;;;5.63;1.75;;;11.20;44.00;;;;;;5059741;28;20043;-64
2021/04/25 00:44:25;;;;;;;5.15;1.70;;;11.20;44.10;;;;;;5076676;28;20065;-64
2021/04/25 00:46:56;;;;;;;7.68;2.22;;;11.20;44.20;;;;;;5082392;28;20040;-65
2021/04/25 00:49:21;;;;;;;7.10;1.95;;;11.20;44.20;;;;;;5082284;28;20061;-64
2021/04/25 00:51:47;;;;;;;6.47;1.60;;;11.20;44.20;;;;;;5078542;28;20036;-64
2021/04/25 00:54:18;;;;;;;9.43;1.55;;;11.20;44.20;;;;;;5064227;28;20097;-65
2021/04/25 00:56:43;;;;;;;7.20;1.95;;;11.20;44.10;;;;;;5062689;28;20656;-65
2021/04/25 00:59:09;;;;;;;10.95;2.00;;;11.20;44.10;;;;;;5076299;28;20115;-65
2021/04/25 01:01:35;;;;;;;8.38;1.75;;;11.20;44.10;;;;;;5072188;28;20040;-65
2021/04/25 01:04:00;;;;;;;4.97;2.10;;;11.20;44.20;;;;;;5076576;28;20032;-65
2021/04/25 01:06:30;;;;;;;5.57;1.77;;;11.20;44.30;;;;;;5066081;28;20042;-64
2021/04/25 01:08:59;;;;;;;5.85;2.03;;;11.20;44.40;;;;;;5077798;28;20067;-63
2021/04/25 01:11:27;;;;;;;4.88;1.42;;;11.20;44.40;;;;;;5065270;28;20086;-64
2021/04/25 01:13:53;;;;;;;7.45;1.50;;;11.20;44.40;;;;;;5062739;28;20081;-65
2021/04/25 01:16:21;;;;;;;6.78;1.60;;;11.20;44.30;;;;;;5080117;28;20040;-64
2021/04/25 01:18:49;;;;;;;3.72;1.40;;;11.20;44.30;;;;;;5057548;28;20097;-64
2021/04/25 01:21:15;;;;;;;6.68;1.65;;;11.20;44.30;;;;;;5076999;28;20032;-65
2021/04/25 01:23:43;;;;;;;9.43;1.88;;;11.20;44.30;;;;;;5079486;28;20028;-64
2021/04/25 01:26:09;;;;;;;5.05;1.73;;;11.20;44.30;;;;;;5073611;28;20025;-64
2021/04/25 01:28:37;;;;;;;15.73;2.03;;;11.20;44.50;;;;;;5082819;28;20271;-65
2021/04/25 01:31:09;;;;;;;6.95;1.52;;;11.10;44.50;;;;;;5076092;28;20035;-64
2021/04/25 01:33:35;;;;;;;7.45;2.00;;;11.20;44.60;;;;;;5078372;28;20085;-64
2021/04/25 01:36:06;;;;;;;7.00;1.90;;;11.20;44.70;;;;;;5083125;28;20036;-64
2021/04/25 01:38:34;;;;;;;8.30;2.10;;;11.20;44.80;;;;;;5080256;28;20046;-64
2021/04/25 01:41:02;;;;;;;4.45;1.45;;;11.20;44.80;;;;;;5060218;28;20028;-64
2021/04/25 01:43:28;;;;;;;8.15;1.70;;;11.20;44.90;;;;;;5081168;28;20055;-64
2021/04/25 01:45:53;;;;;;;12.25;2.42;;;11.20;44.90;;;;;;5075140;28;20055;-65
2021/04/25 01:48:21;;;;;;;3.10;1.52;;;11.20;45.00;;;;;;5075480;28;20040;-65
2021/04/25 01:50:50;;;;;;;7.53;2.05;;;11.20;45.10;;;;;;5078746;28;20071;-65
2021/04/25 01:53:17;;;;;;;5.47;1.80;;;11.20;45.10;;;;;;5076105;28;20473;-64
2021/04/25 01:55:43;;;;;;;10.63;2.60;;;11.20;45.20;;;;;;5062218;28;20055;-64
2021/04/25 01:58:10;;;;;;;7.40;2.17;;;11.20;45.20;;;;;;5080786;28;20036;-64
2021/04/25 02:00:40;;;;;;;4.97;2.35;;;11.10;45.20;;;;;;5079362;28;20036;-65
2021/04/25 02:03:07;;;;;;;10.48;1.90;;;11.10;45.10;;;;;;5074435;28;20044;-64
2021/04/25 02:05:36;;;;;;;7.13;2.25;;;11.10;45.10;;;;;;5079197;28;20041;-65
2021/04/25 02:08:02;;;;;;;6.60;2.20;;;11.10;45.10;;;;;;5076319;28;20036;-65
2021/04/25 02:10:28;;;;;;;8.77;2.10;;;11.10;45.10;;;;;;5077627;28;20039;-64
2021/04/25 02:12:56;;;;;;;6.90;1.88;;;11.10;45.00;;;;;;5073735;28;20028;-64
2021/04/25 02:15:23;;;;;;;14.48;2.10;;;11.10;45.60;;;;;;5063645;28;20047;-64
2021/04/25 02:17:51;;;;;;;7.20;1.77;;;11.10;44.80;;;;;;5061755;28;20127;-65
2021/04/25 02:20:19;;;;;;;9.48;1.95;;;11.10;44.80;;;;;;5053438;28;20056;-64
2021/04/25 02:22:45;;;;;;;11.38;1.80;;;11.10;44.80;;;;;;5052389;28;20510;-65
2021/04/25 02:25:16;;;;;;;4.45;1.73;;;11.10;44.80;;;;;;5057263;28;20040;-64
2021/04/25 02:27:42;;;;;;;4.13;1.60;;;11.10;44.70;;;;;;5045338;28;20044;-64
2021/04/25 02:30:12;;;;;;;8.80;2.10;;;11.10;44.70;;;;;;5050723;28;20160;-65
2021/04/25 02:32:38;;;;;;;10.05;1.77;;;11.10;44.80;;;;;;5046269;28;20126;-64
2021/04/25 02:35:08;;;;;;;7.82;1.63;;;11.10;44.70;;;;;;5068457;28;20112;-64
2021/04/25 02:37:36;;;;;;;7.38;2.10;;;11.10;44.70;;;;;;5055006;28;20071;-64
2021/04/25 02:40:04;;;;;;;9.93;1.70;;;11.10;44.80;;;;;;5059134;28;20038;-65
2021/04/25 02:42:30;;;;;;;11.48;2.20;;;11.10;44.80;;;;;;5027357;28;20036;-65
2021/04/25 02:44:59;;;;;;;5.65;1.85;;;11.10;44.80;;;;;;5047790;28;20045;-65
2021/04/25 02:47:24;;;;;;;11.35;1.52;;;11.10;44.80;;;;;;5066003;28;20055;-64
2021/04/25 02:49:54;;;;;;;11.50;2.22;;;11.10;44.70;;;;;;5074004;28;20688;-65
2021/04/25 02:52:25;;;;;;;9.35;2.35;;;11.00;44.80;;;;;;5074980;28;20055;-65
2021/04/25 02:54:55;;;;;;;5.78;1.98;;;11.00;44.70;;;;;;5073588;28;20125;-65
2021/04/25 02:57:21;;;;;;;8.63;1.90;;;11.00;44.70;;;;;;5077789;28;20059;-65
2021/04/25 02:59:52;;;;;;;5.32;1.73;;;11.00;44.70;;;;;;5072189;28;20039;-64
2021/04/25 03:02:20;;;;;;;5.95;1.58;;;11.00;44.70;;;;;;5067393;28;20038;-65
2021/04/25 03:04:48;;;;;;;9.65;1.30;;;11.00;44.70;;;;;;5050600;28;20718;-64
2021/04/25 03:07:13;;;;;;;9.48;1.75;;;10.90;44.60;;;;;;5060255;28;20547;-64
2021/04/25 03:09:39;;;;;;;12.13;2.03;;;10.90;44.60;;;;;;5077343;28;20036;-64
2021/04/25 03:12:05;;;;;;;9.93;1.60;;;10.90;44.80;;;;;;5073595;28;20033;-64
2021/04/25 03:14:30;;;;;;;8.30;1.90;;;11.00;44.90;;;;;;5078808;28;20032;-64
2021/04/25 03:16:58;;;;;;;6.60;1.80;;;11.00;44.80;;;;;;5079947;28;20478;-65
2021/04/25 03:19:24;;;;;;;11.68;2.30;;;11.00;44.80;;;;;;5062276;28;20032;-64
2021/04/25 03:21:50;;;;;;;4.53;1.85;;;11.00;44.80;;;;;;5072683;28;20578;-64
2021/04/25 03:24:15;;;;;;;7.78;1.63;;;11.00;44.90;;;;;;5076119;28;20028;-64
2021/04/25 03:26:43;;;;;;;5.60;1.75;;;11.10;44.80;;;;;;5077134;28;20061;-64
2021/04/25 03:29:08;;;;;;;11.02;1.80;;;11.10;44.90;;;;;;5078420;28;20035;-64
2021/04/25 03:31:34;;;;;;;8.38;1.52;;;11.10;45.00;;;;;;5067727;28;20044;-64
2021/04/25 03:34:00;;;;;;;7.07;1.90;;;11.10;45.00;;;;;;5076849;28;20039;-64
2021/04/25 03:36:30;;;;;;;7.88;1.90;;;11.10;45.00;;;;;;5076478;28;20645;-64
2021/04/25 03:38:56;;;;;;;8.15;2.05;;;11.10;45.00;;;;;;5074021;28;20922;-65
2021/04/25 03:41:26;;;;;;;15.13;1.90;;;11.10;45.00;;;;;;5054312;28;20122;-64
2021/04/25 03:43:53;;;;;;;7.95;1.98;;;11.10;45.10;;;;;;5053267;28;20036;-64
2021/04/25 03:46:21;;;;;;;12.77;1.83;;;11.10;45.20;;;;;;5062740;28;20104;-65
2021/04/25 03:48:47;;;;;;;5.20;1.77;;;11.00;45.30;;;;;;5073005;28;20070;-65
2021/04/25 03:51:14;;;;;;;11.73;2.72;;;11.00;45.40;;;;;;5058758;28;20060;-64
2021/04/25 03:53:40;;;;;;;9.93;1.63;;;11.00;45.30;;;;;;5078513;28;20039;-64
2021/04/25 03:56:13;;;;;;;7.65;1.60;;;11.00;45.30;;;;;;5077990;28;20033;-64
2021/04/25 03:58:41;;;;;;;9.57;1.63;;;11.00;45.30;;;;;;5063715;28;20085;-65
2021/04/25 04:01:09;;;;;;;10.95;1.95;;;11.00;45.30;;;;;;5077332;28;20036;-65
2021/04/25 04:03:36;;;;;;;5.78;1.67;;;11.00;45.40;;;;;;5059228;28;20047;-64
2021/04/25 04:06:04;;;;;;;10.50;1.60;;;11.00;45.40;;;;;;5062176;28;20133;-65
2021/04/25 04:08:30;;;;;;;10.88;1.73;;;11.00;45.50;;;;;;5048991;28;20053;-64
2021/04/25 04:10:56;;;;;;;10.85;1.60;;;11.00;45.50;;;;;;5067792;28;20090;-64
2021/04/25 04:13:23;;;;;;;7.15;1.75;;;11.00;45.60;;;;;;5071136;28;20102;-64
2021/04/25 04:15:51;;;;;;;5.97;1.38;;;11.00;45.70;;;;;;5076259;28;20039;-64
2021/04/25 04:18:19;;;;;;;8.20;1.67;;;11.00;45.80;;;;;;5081659;28;20032;-64
2021/04/25 04:20:45;;;;;;;6.13;1.95;;;11.10;45.70;;;;;;5071088;28;20078;-65
2021/04/25 04:23:10;;;;;;;19.58;1.80;;;11.00;45.50;;;;;;5074152;28;20066;-64
2021/04/25 04:25:36;;;;;;;12.00;2.08;;;11.00;45.50;;;;;;5068799;28;20069;-64
2021/04/25 04:28:01;;;;;;;8.70;1.90;;;11.00;45.50;;;;;;5081772;28;20175;-64
2021/04/25 04:30:29;;;;;;;9.98;2.30;;;11.00;45.50;;;;;;5083040;28;20485;-64
2021/04/25 04:32:55;;;;;;;15.02;1.80;;;11.00;45.50;;;;;;5064688;28;20180;-64
2021/04/25 04:35:20;;;;;;;10.52;1.85;;;11.00;45.50;;;;;;5079423;28;20762;-64
2021/04/25 04:37:48;;;;;;;9.85;1.60;;;11.00;45.60;;;;;;5080278;28;20032;-64
2021/04/25 04:40:17;;;;;;;18.00;2.10;;;11.10;45.70;;;;;;5061512;28;20068;-64
2021/04/25 04:42:42;;;;;;;15.23;2.00;;;11.10;45.70;;;;;;5077521;28;20534;-64
2021/04/25 04:45:08;;;;;;;6.20;1.60;;;11.10;45.80;;;;;;5080628;28;20069;-64
2021/04/25 04:47:34;;;;;;;13.60;2.17;;;11.10;45.70;;;;;;5066944;28;20036;-65
2021/04/25 04:49:59;;;;;;;16.73;2.05;;;11.10;45.70;;;;;;5062521;28;20035;-64
2021/04/25 04:52:27;;;;;;;7.25;2.25;;;11.10;45.70;;;;;;5074786;28;20064;-64
2021/04/25 04:54:57;;;;;;;12.52;2.05;;;11.10;45.60;;;;;;5077254;28;20037;-64
2021/04/25 04:57:23;;;;;;;10.18;1.75;;;11.10;45.50;;;;;;5078769;28;20676;-64
2021/04/25 04:59:50;;;;;;;9.90;1.50;;;11.10;45.40;;;;;;5079348;28;20067;-65
2021/04/25 05:02:16;;;;;;;17.13;2.22;;;11.10;45.50;;;;;;5064754;28;20036;-64
2021/04/25 05:04:44;;;;;;;10.07;1.92;;;11.20;46.20;;;;;;5066226;28;20371;-64
2021/04/25 05:07:11;;;;;;;9.85;2.10;;;11.20;45.50;;;;;;5069495;28;20440;-64
2021/04/25 05:09:42;;;;;;;8.23;1.80;;;11.20;46.00;;;;;;5078623;28;20925;-64
2021/04/25 05:12:10;;;;;;;10.35;1.80;;;11.30;45.40;;;;;;5079972;28;20092;-64
2021/04/25 05:14:35;;;;;;;13.88;2.15;;;11.30;45.30;;;;;;5059206;28;20035;-65
2021/04/25 05:17:03;;;;;;;9.32;1.70;;;11.30;45.40;;;;;;5070985;28;20043;-64
2021/04/25 05:19:29;;;;;;;9.68;1.90;;;11.30;45.40;;;;;;5079804;28;20082;-65
2021/04/25 05:21:54;;;;;;;11.93;1.77;;;11.40;45.40;;;;;;5080030;28;20039;-65
2021/04/25 05:24:22;;;;;;;15.88;2.25;;;11.40;45.50;;;;;;5051885;28;20040;-64
2021/04/25 05:26:55;;;;;;;10.77;2.13;;;11.50;45.40;;;;;;5079491;28;20043;-64
2021/04/25 05:29:21;;;;;;;8.07;1.85;;;11.50;45.20;;;;;;5079403;28;20047;-65
2021/04/25 05:31:51;;;;;;;4.68;1.30;;;11.40;45.00;;;;;;5068809;28;20036;-65
2021/04/25 05:34:21;;;;;;;7.78;2.22;;;11.40;45.10;;;;;;5070941;28;20031;-64
2021/04/25 05:36:47;;;;;;;11.82;1.63;;;11.50;45.00;;;;;;5071236;28;23973;-64
2021/04/25 05:39:13;;;;;;;7.97;2.42;;;11.50;44.80;;;;;;5074674;28;20031;-64
2021/04/25 05:41:38;;;;;;;11.73;1.83;;;11.50;44.90;;;;;;5075032;28;20056;-65
2021/04/25 05:44:04;;;;;;;6.40;1.42;;;11.50;44.70;;;;;;5073306;28;20111;-64
2021/04/25 05:46:32;;;;;;;6.03;1.70;;;11.60;44.70;;;;;;5080240;28;20036;-64
2021/04/25 05:48:58;;;;;;;8.63;1.70;;;11.70;44.70;;;;;;5079660;28;20039;-64
2021/04/25 05:51:24;;;;;;;8.90;1.75;;;11.70;44.50;;;;;;5082125;28;20594;-64
2021/04/25 05:53:52;;;;;;;11.25;1.85;;;11.70;44.50;;;;;;5081261;28;20082;-64
2021/04/25 05:56:17;;;;;;;9.82;1.55;;;11.80;44.30;;;;;;5081292;28;20043;-64
2021/04/25 05:58:43;;;;;;;12.10;1.85;;;11.80;44.30;;;;;;5058667;28;20537;-64
2021/04/25 06:01:11;;;;;;;8.82;1.83;;;11.90;44.40;;;;;;5051797;28;20047;-64
2021/04/25 06:03:37;;;;;;;10.95;2.03;;;11.90;44.40;;;;;;5075435;28;20042;-64
2021/04/25 06:06:02;;;;;;;5.25;1.58;;;11.90;44.30;;;;;;5080686;28;20044;-65
2021/04/25 06:08:28;;;;;;;11.65;2.20;;;11.90;44.40;;;;;;5080225;28;20036;-64
2021/04/25 06:10:55;;;;;;;16.35;2.28;;;11.90;44.20;;;;;;5084456;28;20028;-64
2021/04/25 06:13:24;;;;;;;10.32;2.00;;;12.00;44.30;;;;;;5088346;28;20046;-64
2021/04/25 06:15:52;;;;;;;10.90;1.88;;;12.00;44.20;;;;;;5086020;28;20044;-64
2021/04/25 06:18:20;;;;;;;11.10;2.17;;;12.00;44.20;;;;;;5074035;28;20097;-64
2021/04/25 06:20:48;;;;;;;15.23;1.90;;;12.10;44.20;;;;;;5079190;28;20032;-64
2021/04/25 06:23:16;;;;;;;7.82;1.95;;;12.10;44.00;;;;;;5084732;28;20046;-64
2021/04/25 06:25:41;;;;;;;9.93;1.75;;;12.20;43.90;;;;;;5062667;28;20040;-65
2021/04/25 06:28:12;;;;;;;7.95;2.50;;;12.20;43.90;;;;;;5080828;28;20036;-64
2021/04/25 06:30:38;;;;;;;7.65;1.80;;;12.30;43.90;;;;;;5080702;28;20036;-64
2021/04/25 06:33:04;;;;;;;7.40;1.73;;;12.30;43.90;;;;;;5070360;28;20040;-64
2021/04/25 06:35:32;;;;;;;5.90;1.75;;;12.40;44.10;;;;;;5079779;28;20126;-64
2021/04/25 06:37:57;;;;;;;6.07;1.67;;;12.40;44.00;;;;;;5059502;28;20044;-63
2021/04/25 06:40:23;;;;;;;12.50;1.98;;;12.50;44.00;;;;;;5070406;28;20072;-64
2021/04/25 06:42:49;;;;;;;8.05;1.85;;;12.50;43.80;;;;;;5071792;28;20442;-64
2021/04/25 06:45:19;;;;;;;9.20;1.58;;;12.60;43.70;;;;;;5066516;28;21879;-64
2021/04/25 06:47:45;;;;;;;7.55;1.58;;;12.60;43.80;;;;;;5083355;28;20618;-64
2021/04/25 06:50:13;;;;;;;15.18;2.20;;;12.60;43.70;;;;;;5058540;28;20081;-64
2021/04/25 06:52:43;;;;;;;12.00;2.20;;;12.70;43.80;;;;;;5080102;28;20149;-64
2021/04/25 06:55:11;;;;;;;7.20;1.95;;;12.70;43.60;;;;;;5079366;28;20024;-64
2021/04/25 06:57:40;;;;;;;12.25;1.70;;;12.70;43.50;;;;;;5059638;28;20040;-64
2021/04/25 07:00:09;;;;;;;12.43;2.13;;;12.80;43.40;;;;;;5070358;28;20043;-65
2021/04/25 07:02:37;;;;;;;12.18;1.98;;;12.80;43.20;;;;;;5056389;28;20048;-65
2021/04/25 07:05:04;;;;;;;9.85;1.85;;;12.80;43.10;;;;;;5072886;28;20036;-64
2021/04/25 07:07:30;;;;;;;12.88;1.92;;;12.80;43.00;;;;;;5050296;28;20032;-64
2021/04/25 07:09:58;;;;;;;9.63;1.77;;;12.80;42.80;;;;;;5072358;28;20046;-64
2021/04/25 07:12:24;;;;;;;12.65;1.80;;;12.80;42.70;;;;;;5060866;28;20187;-64
2021/04/25 07:14:50;;;;;;;13.15;1.65;;;13.00;43.00;;;;;;5070673;28;20655;-64
2021/04/25 07:17:15;;;;;;;15.35;2.53;;;13.30;42.90;;;;;;5069404;28;20044;-65
2021/04/25 07:19:41;;;;;;;7.88;2.08;;;13.70;42.50;;;;;;5075397;28;20227;-65
2021/04/25 07:22:07;;;;;;;11.98;1.85;;;14.50;41.60;;;;;;5074846;28;20040;-64
2021/04/25 07:24:33;;;;;;;10.88;1.65;;;;;;;;;;5069833;28;20895;-65
2021/04/25 07:26:59;;;;;;;8.35;1.88;;;;;;;;;;5065864;28;20070;-64
2021/04/25 07:29:24;;;;;;;6.55;1.70;;;15.50;41.10;;;;;;5059150;28;20046;-64
2021/04/25 07:31:50;;;;;;;6.13;1.70;;;18.40;34.90;;;;;;5031857;28;20036;-65
2021/04/25 07:34:17;;;;;;;7.30;1.70;;;18.50;33.60;;;;;;5070989;28;20134;-65
2021/04/25 07:36:42;;;;;;;8.35;1.75;;;18.40;33.90;;;;;;5073680;28;20032;-65
2021/04/25 07:39:08;;;;;;;10.02;1.55;;;;;;;;;;5068217;28;20040;-65
2021/04/25 07:41:35;;;;;;;7.30;1.75;;;;;;;;;;5066077;28;20043;-65
2021/04/25 07:44:00;;;;;;;11.45;1.55;;;18.80;34.10;;;;;;5069548;28;20036;-65
2021/04/25 07:46:31;;;;;;;10.30;1.50;;;;;;;;;;5063992;28;20090;-65
2021/04/25 07:48:56;;;;;;;5.78;1.30;;;21.60;29.90;;;;;;5074687;28;20136;-65
2021/04/25 07:51:22;;;;;;;8.27;1.23;;;21.30;28.80;;;;;;5069148;28;20028;-65
2021/04/25 07:53:52;;;;;;;8.32;1.70;;;20.70;29.20;;;;;;5068986;28;20032;-65
2021/04/25 07:56:22;;;;;;;5.82;1.20;;;20.00;29.60;;;;;;5067387;28;20808;-65
2021/04/25 07:58:50;;;;;;;10.15;1.70;;;19.30;30.30;;;;;;5077174;28;20506;-65
2021/04/25 08:01:22;;;;;;;8.70;1.52;;;18.70;31.00;;;;;;5072118;28;20043;-65
2021/04/25 08:03:50;;;;;;;6.47;1.75;;;18.20;32.00;;;;;;5073012;28;20150;-65
2021/04/25 08:06:20;;;;;;;14.20;2.22;;;17.80;33.00;;;;;;5063431;28;21906;-65
2021/04/25 08:08:48;;;;;;;9.27;1.50;;;17.50;33.00;;;;;;5051163;28;20401;-65
2021/04/25 08:11:16;;;;;;;8.25;1.55;;;17.30;33.40;;;;;;5057272;28;20721;-64
2021/04/25 08:13:42;;;;;;;6.45;1.63;;;17.20;34.00;;;;;;5076824;28;20118;-64
2021/04/25 08:16:07;;;;;;;5.50;1.67;;;17.40;34.50;;;;;;5076678;28;20360;-64
2021/04/25 08:18:35;;;;;;;6.15;1.35;;;17.90;33.70;;;;;;5074598;28;20036;-65
2021/04/25 08:21:00;;;;;;;9.52;1.75;;;18.40;32.70;;;;;;5072377;28;20059;-64
2021/04/25 08:23:28;;;;;;;7.97;1.45;;;18.60;31.80;;;;;;5080385;28;20079;-65
2021/04/25 08:25:56;;;;;;;6.32;1.85;;;18.40;31.20;;;;;;5079872;28;20039;-64
2021/04/25 08:28:24;;;;;;;8.77;1.75;;;18.00;31.00;;;;;;5080782;28;20036;-64
2021/04/25 08:30:54;;;;;;;4.85;1.67;;;17.70;31.60;;;;;;5070857;28;20068;-64
2021/04/25 08:33:22;;;;;;;4.85;1.50;;;17.40;31.60;;;;;;5067398;28;20042;-65
2021/04/25 08:35:50;;;;;;;5.90;1.90;;;17.40;31.50;;;;;;5076821;28;20041;-65
2021/04/25 08:38:16;;;;;;;4.10;1.60;;;17.90;32.40;;;;;;5052495;28;20048;-65
2021/04/25 08:40:44;;;;;;;4.03;1.90;;;19.70;31.20;;;;;;5060134;28;20524;-65
2021/04/25 08:43:12;;;;;;;7.43;2.05;;;21.90;28.60;;;;;;5065455;28;20040;-66
2021/04/25 08:45:50;;;;;;;5.38;1.70;;;23.60;27.00;;;;;;5049906;28;20661;-65
2021/04/25 08:48:18;;;;;;;6.28;1.90;;;;;;;;;;5071950;28;20378;-66
2021/04/25 08:50:44;;;;;;;7.43;2.00;;;;;;;;;;5054287;28;20070;-66
2021/04/25 08:53:11;;;;;;;4.65;2.20;;;;;;;;;;5049334;28;20044;-66
2021/04/25 08:55:39;;;;;;;5.03;1.70;;;25.20;25.10;;;;;;5067382;28;20063;-65
2021/04/25 08:58:05;;;;;;;3.90;1.80;;;28.70;20.30;;;;;;5062988;28;20140;-66
2021/04/25 09:00:33;;;;;;;5.85;2.10;;;27.50;20.20;;;;;;5066190;28;20498;-66
2021/04/25 09:03:01;;;;;;;9.18;2.10;;;26.30;20.90;;;;;;5049450;28;20074;-65
2021/04/25 09:05:27;;;;;;;4.20;1.70;;;25.00;21.50;;;;;;5074990;28;20470;-65
2021/04/25 09:07:58;;;;;;;4.50;1.90;;;24.10;22.20;;;;;;5068389;28;20033;-65
2021/04/25 09:10:36;;;;;;;5.93;1.88;;;23.10;23.30;;;;;;5061617;28;20042;-65
2021/04/25 09:13:19;;;;;;;6.72;1.92;;;22.30;24.20;;;;;;5054694;28;20034;-65
2021/04/25 09:15:45;;;;;;;8.70;1.90;;;21.40;25.10;;;;;;5059027;28;20576;-65
2021/04/25 09:18:13;;;;;;;8.07;2.15;;;21.70;26.60;;;;;;5055481;28;20028;-65
2021/04/25 09:20:45;;;;;;;7.20;2.10;;;22.70;25.30;;;;;;5065005;28;20126;-65
2021/04/25 09:23:26;;;;;;;18.58;2.58;;;23.30;24.50;;;;;;5058582;28;20477;-64
2021/04/25 09:25:59;;;;;;;5.65;1.85;;;23.10;24.80;;;;;;5054336;28;20537;-65
2021/04/25 09:28:25;;;;;;;5.78;2.08;;;22.40;25.20;;;;;;5062197;28;20153;-64
2021/04/25 09:31:15;;;;;;;10.27;2.22;;;21.70;25.70;;;;;;5066035;28;20036;-65
2021/04/25 09:33:56;;;;;;;4.05;1.80;;;20.90;26.50;;;;;;5037661;28;20044;-65
2021/04/25 09:36:25;;;;;;;3.65;1.65;;;20.20;27.40;;;;;;5031138;28;20442;-65
2021/04/25 09:39:06;;;;;;;3.60;1.95;;;19.80;28.00;;;;;;5042523;28;20044;-65
2021/04/25 09:41:33;;;;;;;7.80;2.00;;;19.60;28.00;;;;;;5058928;28;20067;-64
2021/04/25 09:44:02;;;;;;;5.13;2.22;;;19.40;28.70;;;;;;5041799;28;20051;-65
2021/04/25 09:46:53;;;;;;;6.55;2.00;;;19.20;28.70;;;;;;5060308;28;20047;-66
2021/04/25 09:49:52;;;;;;;6.97;1.83;;;18.90;28.50;;;;;;5041715;28;20633;-65
2021/04/25 09:52:26;;;;;;;6.00;1.90;;;18.60;28.70;;;;;;5039298;28;20598;-65
2021/04/25 09:55:12;;;;;;;8.07;2.05;;;18.30;29.00;;;;;;5042520;28;20040;-65
2021/04/25 09:57:38;;;;;;;6.53;1.65;;;19.00;29.40;;;;;;5055875;28;20036;-65
2021/04/25 10:00:05;;;;;;;5.03;1.85;;;20.20;27.90;;;;;;5061475;28;20043;-65
2021/04/25 10:02:33;;;;;;;5.05;1.70;;;20.40;27.00;;;;;;5033952;28;20085;-65
2021/04/25 10:05:10;;;;;;;5.63;1.60;;;20.20;26.60;;;;;;5043452;28;20571;-65
2021/04/25 10:07:35;;;;;;;1.95;1.35;;;19.90;26.30;;;;;;5066139;28;20423;-65
2021/04/25 10:10:15;;;;;;;3.15;1.45;;;20.10;27.30;;;;;;5061828;28;20115;-65
2021/04/25 10:12:44;;;;;;;5.03;1.70;;;;;;;;;;5061225;28;20798;-66
2021/04/25 10:15:11;;;;;;;3.55;1.63;;;21.50;26.40;;;;;;5057435;28;20402;-65
2021/04/25 10:17:41;;;;;;;4.88;1.60;;;;;;;;;;5064365;28;20043;-66
2021/04/25 10:20:07;;;;;;;2.78;1.60;;;;;;;;;;5050240;28;22134;-65
2021/04/25 10:22:34;;;;;;;6.10;1.80;;;;;;;;;;5065910;28;20195;-65
2021/04/25 10:25:02;;;;;;;5.07;2.00;;;;;;;;;;5066008;28;20174;-65
2021/04/25 10:27:28;;;;;;;3.90;2.00;;;;;;;;;;5060404;28;20068;-66
2021/04/25 10:29:57;;;;;;;6.25;2.30;;;24.60;23.10;;;;;;5069336;28;20142;-66
2021/04/25 10:32:23;;;;;;;4.63;1.85;;;28.40;19.70;;;;;;5064875;28;20138;-66
2021/04/25 10:35:19;;;;;;;4.90;2.05;;;27.30;20.10;;;;;;5065653;28;20089;-66
2021/04/25 10:37:46;;;;;;;3.42;1.83;;;25.80;20.80;;;;;;5067068;28;20465;-66
2021/04/25 10:40:32;;;;;;;2.83;1.70;;;24.60;21.90;;;;;;5054198;28;20047;-66
2021/04/25 10:43:09;;;;;;;6.05;2.00;;;24.20;23.20;;;;;;5066818;28;20075;-65
2021/04/25 10:45:53;;;;;;;3.50;1.90;;;24.70;22.80;;;;;;5058547;28;20109;-66
2021/04/25 10:48:27;;;;;;;4.07;2.00;;;24.40;22.60;;;;;;5060889;28;20173;-65
2021/04/25 10:51:03;;;;;;;4.35;2.10;;;23.70;22.90;;;;;;5061661;28;20139;-66
2021/04/25 10:53:34;;;;;;;3.92;1.63;;;22.90;23.70;;;;;;5062247;28;20044;-66
2021/04/25 10:56:12;;;;;;;3.83;1.63;;;22.20;24.30;;;;;;5065878;28;20563;-64
2021/04/25 10:58:37;;;;;;;4.70;1.90;;;21.50;24.90;;;;;;5068019;28;20154;-65
2021/04/25 11:01:07;;;;;;;3.05;2.17;;;21.10;25.50;;;;;;5035943;28;20039;-66
2021/04/25 11:03:35;;;;;;;4.32;2.00;;;21.30;26.10;;;;;;5060995;28;20043;-66
2021/04/25 11:06:01;;;;;;;5.22;1.77;;;22.10;25.70;;;;;;5057298;28;20032;-66
2021/04/25 11:08:32;;;;;;;4.50;2.00;;;23.00;24.60;;;;;;5047419;28;20036;-65
2021/04/25 11:11:11;;;;;;;3.47;1.80;;;23.10;24.00;;;;;;5062673;28;20074;-65
2021/04/25 11:13:40;;;;;;;5.00;1.88;;;22.60;24.10;;;;;;5043808;28;20363;-65
2021/04/25 11:16:16;;;;;;;3.65;1.90;;;22.20;24.70;;;;;;5056904;28;20102;-66
2021/04/25 11:18:54;;;;;;;6.82;2.50;;;22.40;24.50;;;;;;5069142;28;20040;-66
2021/04/25 11:21:40;;;;;;;5.18;2.10;;;22.60;24.30;;;;;;5054965;28;20036;-66
2021/04/25 11:24:08;;;;;;;7.75;1.95;;;22.50;24.30;;;;;;5059823;28;20074;-65
2021/04/25 11:26:34;;;;;;;6.63;2.22;;;22.10;24.70;;;;;;5041496;28;20028;-66
2021/04/25 11:29:08;;;;;;;2.63;1.90;;;22.00;25.10;;;;;;5064212;28;20461;-65
2021/04/25 11:31:46;;;;;;;4.68;2.35;;;21.90;24.70;;;;;;5051946;28;20036;-65
2021/04/25 11:34:33;;;;;;;5.82;2.15;;;21.90;24.90;;;;;;5063854;28;20093;-65
2021/04/25 11:37:22;;;;;;;6.72;2.00;;;21.80;25.30;;;;;;5064317;28;20039;-65
2021/04/25 11:40:09;;;;;;;3.67;2.10;;;21.80;25.10;;;;;;5059107;28;20039;-65
2021/04/25 11:42:47;;;;;;;3.72;1.95;;;21.80;24.60;;;;;;5033704;28;20044;-65
2021/04/25 11:45:29;;;;;;;3.22;1.88;;;21.70;24.50;;;;;;5048140;28;20036;-65
2021/04/25 11:48:06;;;;;;;3.85;1.88;;;21.70;25.50;;;;;;5064753;28;20067;-65
2021/04/25 11:50:36;;;;;;;4.10;1.60;;;22.10;25.50;;;;;;5054815;28;20051;-66
2021/04/25 11:53:05;;;;;;;2.22;1.60;;;22.50;24.90;;;;;;5061421;28;20338;-65
2021/04/25 11:55:33;;;;;;;5.03;2.00;;;22.50;24.50;;;;;;5069449;28;20032;-65
2021/04/25 11:58:01;;;;;;;4.28;1.90;;;22.20;24.10;;;;;;5068993;28;20428;-65
2021/04/25 12:00:35;;;;;;;7.63;2.20;;;21.70;24.50;;;;;;5063125;28;20060;-65
2021/04/25 12:03:05;;;;;;;2.45;1.63;;;21.10;24.80;;;;;;5035865;28;20375;-65
2021/04/25 12:05:38;;;;;;;6.68;2.22;;;20.80;24.90;;;;;;5048912;28;20093;-65
2021/04/25 12:08:07;;;;;;;3.78;2.03;;;20.60;24.90;;;;;;5063370;28;20040;-64
2021/04/25 12:10:44;;;;;;;4.53;2.10;;;20.60;25.40;;;;;;5058560;28;20032;-65
2021/04/25 12:13:19;;;;;;;3.83;1.90;;;20.70;25.70;;;;;;5063570;28;20398;-65
2021/04/25 12:15:54;;;;;;;4.35;1.92;;;20.90;25.80;;;;;;5076201;28;20126;-65
2021/04/25 12:18:22;;;;;;;4.70;1.80;;;20.90;25.50;;;;;;5076030;28;20116;-65
2021/04/25 12:20:49;;;;;;;3.17;1.80;;;20.60;25.50;;;;;;5069279;28;20098;-65
2021/04/25 12:23:20;;;;;;;4.78;2.25;;;20.30;26.20;;;;;;5073207;28;20401;-64
2021/04/25 12:25:49;;;;;;;3.42;2.05;;;20.10;26.00;;;;;;5060832;28;20126;-64
2021/04/25 12:28:16;;;;;;;4.20;1.92;;;19.90;26.60;;;;;;5077827;28;20044;-64
2021/04/25 12:30:45;;;;;;;4.88;2.17;;;19.90;27.00;;;;;;5071146;28;20119;-65
2021/04/25 12:33:18;;;;;;;5.07;1.70;;;20.20;27.10;;;;;;5081952;28;20040;-64
2021/04/25 12:35:51;;;;;;;4.55;2.05;;;20.70;27.20;;;;;;5058179;28;20410;-65
2021/04/25 12:38:25;;;;;;;5.40;1.80;;;21.30;26.80;;;;;;5052695;28;20101;-65
2021/04/25 12:40:57;;;;;;;5.90;1.90;;;21.70;25.60;;;;;;5074658;28;20062;-65
2021/04/25 12:43:27;;;;;;;2.50;1.98;;;21.80;24.70;;;;;;5068120;28;20188;-65
2021/04/25 12:45:54;;;;;;;4.53;2.10;;;21.50;25.10;;;;;;5061052;28;20516;-64
2021/04/25 12:48:28;;;;;;;2.75;1.55;;;21.20;25.60;;;;;;5068906;28;20888;-64
2021/04/25 12:51:13;;;;;;;4.35;1.88;;;21.20;25.50;;;;;;5073342;28;20051;-64
2021/04/25 12:53:46;;;;;;;2.58;1.70;;;21.10;25.40;;;;;;5062732;28;20406;-64
2021/04/25 12:56:35;;;;;;;3.55;1.80;;;21.00;25.60;;;;;;5062541;28;20035;-65